createdAt,value
2018-09-17T00:00:58.766Z,5.12
2018-09-17T00:01:59.237Z,5.12
2018-09-17T00:02:59.713Z,5.12
2018-09-17T00:04:00.180Z,5.12
2018-09-17T00:05:00.652Z,5.12
2018-09-17T00:06:01.123Z,5.10
2018-09-17T00:07:01.595Z,5.09
2018-09-17T00:08:02.117Z,5.07
2018-09-17T00:09:02.539Z,5.08
2018-09-17T00:10:03.011Z,5.18
2018-09-17T00:11:03.485Z,5.25
2018-09-17T00:12:03.956Z,5.28
2018-09-17T00:13:04.428Z,5.36
2018-09-17T00:14:04.900Z,5.40
2018-09-17T00:15:05.373Z,5.37
2018-09-17T00:16:05.872Z,5.37
2018-09-17T00:17:06.323Z,5.40
2018-09-17T00:18:06.795Z,5.44
2018-09-17T00:19:07.270Z,5.40
2018-09-17T00:20:07.744Z,5.36
2018-09-17T00:21:08.220Z,5.42
2018-09-17T00:22:08.692Z,5.45
2018-09-17T00:23:09.215Z,5.40
2018-09-17T00:24:09.642Z,5.41
2018-09-17T00:25:10.116Z,5.40
2018-09-17T00:26:10.590Z,5.40
2018-09-17T00:27:11.066Z,5.38
2018-09-17T00:28:11.539Z,5.40
2018-09-17T00:29:12.015Z,5.38
2018-09-17T00:30:12.487Z,5.36
2018-09-17T00:31:12.962Z,5.34
2018-09-17T00:32:13.437Z,5.33
2018-09-17T00:33:13.911Z,5.29
2018-09-17T00:34:14.385Z,5.29
2018-09-17T00:35:14.864Z,5.27
2018-09-17T00:36:15.333Z,5.26
2018-09-17T00:37:15.807Z,5.27
2018-09-17T00:38:16.331Z,5.26
2018-09-17T00:39:16.755Z,5.24
2018-09-17T00:40:17.230Z,5.24
2018-09-17T00:41:17.703Z,5.22
2018-09-17T00:42:18.175Z,5.19
2018-09-17T00:43:18.648Z,5.16
2018-09-17T00:44:19.123Z,5.16
2018-09-17T00:45:19.596Z,5.14
2018-09-17T00:46:20.069Z,5.14
2018-09-17T00:47:20.539Z,5.14
2018-09-17T00:48:21.065Z,5.19
2018-09-17T00:49:21.488Z,5.19
2018-09-17T00:50:21.958Z,5.16
2018-09-17T00:51:22.431Z,5.14
2018-09-17T00:52:22.903Z,5.14
2018-09-17T00:53:23.376Z,5.08
2018-09-17T00:54:23.847Z,5.08
2018-09-17T00:55:24.319Z,5.05
2018-09-17T00:56:24.791Z,5.02
2018-09-17T00:57:25.262Z,5.06
2018-09-17T00:58:25.736Z,5.10
2018-09-17T00:59:26.210Z,5.04
2018-09-17T01:00:26.678Z,5.02
2018-09-17T01:01:27.149Z,5.04
2018-09-17T01:02:27.617Z,5.10
2018-09-17T01:03:28.090Z,5.15
2018-09-17T01:04:28.562Z,5.18
2018-09-17T01:05:29.029Z,5.20
2018-09-17T01:06:29.504Z,5.21
2018-09-17T01:07:29.972Z,5.19
2018-09-17T01:08:30.443Z,5.20
2018-09-17T01:09:30.914Z,5.24
2018-09-17T01:10:31.383Z,5.26
2018-09-17T01:11:31.854Z,5.24
2018-09-17T01:12:32.323Z,5.22
2018-09-17T01:13:32.795Z,5.16
2018-09-17T01:14:33.267Z,5.16
2018-09-17T01:15:33.736Z,5.20
2018-09-17T01:16:34.204Z,5.26
2018-09-17T01:17:34.679Z,5.30
2018-09-17T01:18:35.149Z,5.32
2018-09-17T01:19:35.620Z,5.32
2018-09-17T01:20:36.090Z,5.32
2018-09-17T01:21:36.561Z,5.32
2018-09-17T01:22:37.033Z,5.33
2018-09-17T01:23:37.504Z,5.31
2018-09-17T01:24:37.977Z,5.32
2018-09-17T01:25:38.452Z,5.30
2018-09-17T01:26:38.923Z,5.28
2018-09-17T01:27:39.402Z,5.31
2018-09-17T01:28:39.917Z,5.32
2018-09-17T01:29:40.338Z,5.30
2018-09-17T01:30:40.810Z,5.26
2018-09-17T01:31:41.284Z,5.24
2018-09-17T01:32:41.757Z,5.23
2018-09-17T01:33:42.235Z,5.22
2018-09-17T01:34:42.704Z,5.24
2018-09-17T01:35:43.180Z,5.30
2018-09-17T01:36:43.652Z,5.30
2018-09-17T01:37:44.127Z,5.29
2018-09-17T01:38:44.599Z,5.28
2018-09-17T01:39:45.078Z,5.31
2018-09-17T01:40:45.556Z,5.32
2018-09-17T01:41:46.025Z,5.26
2018-09-17T01:42:46.500Z,5.22
2018-09-17T01:43:46.972Z,5.26
2018-09-17T01:44:47.452Z,5.18
2018-09-17T01:45:47.923Z,5.16
2018-09-17T01:46:48.397Z,4.99
2018-09-17T01:47:48.870Z,5.04
2018-09-17T01:48:49.345Z,5.17
2018-09-17T01:49:49.825Z,5.24
2018-09-17T01:50:50.293Z,5.24
2018-09-17T01:51:50.767Z,5.22
2018-09-17T01:52:51.242Z,5.22
2018-09-17T01:53:51.716Z,5.22
2018-09-17T01:54:52.188Z,5.23
2018-09-17T01:55:52.663Z,5.24
2018-09-17T01:56:53.139Z,5.25
2018-09-17T01:57:53.610Z,5.16
2018-09-17T01:58:54.084Z,4.84
2018-09-17T01:59:54.557Z,4.66
2018-09-17T02:00:55.030Z,4.68
2018-09-17T02:01:55.504Z,4.74
2018-09-17T02:02:55.973Z,4.92
2018-09-17T02:03:56.447Z,5.10
2018-09-17T02:04:56.921Z,4.90
2018-09-17T02:05:57.391Z,4.66
2018-09-17T02:06:57.863Z,4.66
2018-09-17T02:07:58.338Z,4.64
2018-09-17T02:08:58.824Z,4.72
2018-09-17T02:09:59.294Z,4.78
2018-09-17T02:10:59.751Z,4.74
2018-09-17T02:12:00.222Z,4.69
2018-09-17T02:13:00.696Z,4.67
2018-09-17T02:14:01.167Z,4.68
2018-09-17T02:15:01.637Z,4.67
2018-09-17T02:16:02.112Z,4.68
2018-09-17T02:17:02.579Z,4.68
2018-09-17T02:18:03.053Z,4.70
2018-09-17T02:19:03.576Z,4.70
2018-09-17T02:20:03.990Z,4.70
2018-09-17T02:21:04.463Z,4.72
2018-09-17T02:22:04.933Z,4.76
2018-09-17T02:23:05.403Z,4.82
2018-09-17T02:24:05.874Z,4.86
2018-09-17T02:25:06.347Z,4.92
2018-09-17T02:26:06.815Z,4.91
2018-09-17T02:27:07.286Z,4.92
2018-09-17T02:28:07.755Z,4.94
2018-09-17T02:29:08.226Z,4.98
2018-09-17T02:30:08.714Z,5.00
2018-09-17T02:31:09.169Z,5.02
2018-09-17T02:32:09.637Z,5.03
2018-09-17T02:33:10.113Z,5.06
2018-09-17T02:34:10.580Z,5.08
2018-09-17T02:35:11.049Z,5.10
2018-09-17T02:36:11.524Z,5.12
2018-09-17T02:37:11.994Z,5.16
2018-09-17T02:38:12.464Z,5.17
2018-09-17T02:39:12.938Z,5.16
2018-09-17T02:40:13.408Z,5.14
2018-09-17T02:41:13.881Z,5.17
2018-09-17T02:42:14.353Z,5.18
2018-09-17T02:43:14.832Z,5.16
2018-09-17T02:44:15.349Z,5.17
2018-09-17T02:45:15.772Z,5.18
2018-09-17T02:46:16.245Z,5.16
2018-09-17T02:47:16.719Z,5.02
2018-09-17T02:48:17.190Z,5.08
2018-09-17T02:49:17.713Z,5.10
2018-09-17T02:50:18.136Z,5.14
2018-09-17T02:51:18.612Z,5.16
2018-09-17T02:52:19.088Z,5.16
2018-09-17T02:53:19.559Z,5.17
2018-09-17T02:54:20.037Z,5.17
2018-09-17T02:55:20.509Z,5.20
2018-09-17T02:56:20.983Z,5.21
2018-09-17T02:57:21.456Z,5.22
2018-09-17T02:58:21.933Z,5.22
2018-09-17T02:59:22.457Z,5.22
2018-09-17T03:00:22.881Z,5.24
2018-09-17T03:01:23.355Z,5.24
2018-09-17T03:02:23.830Z,5.24
2018-09-17T03:03:24.304Z,5.23
2018-09-17T03:04:24.776Z,5.21
2018-09-17T03:05:25.253Z,5.22
2018-09-17T03:06:25.725Z,5.24
2018-09-17T03:07:26.203Z,5.24
2018-09-17T03:08:26.674Z,5.24
2018-09-17T03:09:27.146Z,5.25
2018-09-17T03:10:27.621Z,5.22
2018-09-17T03:11:28.092Z,5.22
2018-09-17T03:12:28.567Z,5.17
2018-09-17T03:13:29.040Z,5.14
2018-09-17T03:14:29.515Z,5.04
2018-09-17T03:15:29.985Z,4.73
2018-09-17T03:16:30.459Z,4.62
2018-09-17T03:17:30.930Z,4.70
2018-09-17T03:18:31.407Z,4.66
2018-09-17T03:19:31.926Z,4.64
2018-09-17T03:20:32.349Z,4.63
2018-09-17T03:21:32.820Z,4.69
2018-09-17T03:22:33.292Z,4.74
2018-09-17T03:23:33.768Z,4.76
2018-09-17T03:24:34.303Z,4.83
2018-09-17T03:25:34.706Z,4.94
2018-09-17T03:26:35.212Z,5.00
2018-09-17T03:27:35.650Z,4.98
2018-09-17T03:28:36.124Z,4.90
2018-09-17T03:29:36.592Z,4.90
2018-09-17T03:30:37.063Z,4.93
2018-09-17T03:31:37.539Z,4.72
2018-09-17T03:32:38.004Z,4.66
2018-09-17T03:33:38.476Z,4.54
2018-09-17T03:34:38.948Z,4.54
2018-09-17T03:35:39.416Z,4.57
2018-09-17T03:36:39.889Z,4.58
2018-09-17T03:37:40.376Z,4.64
2018-09-17T03:38:41.037Z,4.76
2018-09-17T03:39:41.298Z,4.82
2018-09-17T03:40:41.769Z,4.83
2018-09-17T03:41:42.241Z,4.85
2018-09-17T03:42:42.711Z,4.85
2018-09-17T03:43:43.185Z,4.85
2018-09-17T03:44:43.697Z,4.87
2018-09-17T03:45:44.122Z,4.89
2018-09-17T03:46:44.673Z,4.86
2018-09-17T03:47:45.065Z,4.92
2018-09-17T03:48:45.535Z,4.94
2018-09-17T03:49:46.005Z,4.92
2018-09-17T03:50:46.479Z,4.88
2018-09-17T03:51:46.951Z,4.88
2018-09-17T03:52:47.423Z,4.91
2018-09-17T03:53:47.893Z,4.96
2018-09-17T03:54:48.368Z,4.94
2018-09-17T03:55:48.837Z,4.88
2018-09-17T03:56:49.312Z,4.85
2018-09-17T03:57:49.784Z,4.94
2018-09-17T03:58:50.259Z,5.01
2018-09-17T03:59:50.729Z,5.04
2018-09-17T04:00:51.206Z,5.08
2018-09-17T04:01:51.678Z,5.09
2018-09-17T04:02:52.150Z,5.10
2018-09-17T04:03:52.627Z,5.12
2018-09-17T04:04:53.100Z,5.12
2018-09-17T04:05:53.571Z,5.12
2018-09-17T04:06:54.051Z,5.11
2018-09-17T04:07:54.523Z,5.01
2018-09-17T04:08:54.996Z,4.96
2018-09-17T04:09:55.471Z,4.93
2018-09-17T04:10:55.944Z,4.98
2018-09-17T04:11:56.418Z,5.04
2018-09-17T04:12:56.892Z,5.10
2018-09-17T04:13:57.367Z,5.12
2018-09-17T04:14:57.842Z,5.11
2018-09-17T04:15:58.315Z,5.13
2018-09-17T04:16:58.791Z,5.10
2018-09-17T04:17:59.266Z,5.07
2018-09-17T04:18:59.740Z,5.02
2018-09-17T04:20:00.212Z,4.90
2018-09-17T04:21:00.686Z,4.80
2018-09-17T04:22:01.163Z,4.78
2018-09-17T04:23:01.633Z,4.76
2018-09-17T04:24:02.109Z,4.68
2018-09-17T04:25:02.580Z,4.69
2018-09-17T04:26:03.055Z,4.71
2018-09-17T04:27:03.527Z,4.70
2018-09-17T04:28:03.996Z,4.69
2018-09-17T04:29:04.471Z,4.70
2018-09-17T04:30:04.995Z,4.72
2018-09-17T04:31:05.420Z,4.73
2018-09-17T04:32:05.888Z,4.76
2018-09-17T04:33:06.419Z,4.76
2018-09-17T04:34:06.834Z,4.60
2018-09-17T04:35:07.334Z,4.49
2018-09-17T04:36:07.774Z,4.54
2018-09-17T04:37:08.247Z,4.61
2018-09-17T04:38:08.722Z,4.65
2018-09-17T04:39:09.189Z,4.66
2018-09-17T04:40:09.668Z,4.66
2018-09-17T04:41:10.131Z,4.65
2018-09-17T04:42:10.604Z,4.62
2018-09-17T04:43:11.076Z,4.61
2018-09-17T04:44:11.545Z,4.58
2018-09-17T04:45:12.016Z,4.44
2018-09-17T04:46:12.485Z,4.26
2018-09-17T04:47:12.956Z,4.09
2018-09-17T04:48:13.426Z,3.98
2018-09-17T04:49:13.897Z,4.03
2018-09-17T04:50:14.452Z,3.95
2018-09-17T04:51:14.846Z,3.90
2018-09-17T04:52:15.309Z,3.90
2018-09-17T04:53:15.782Z,3.96
2018-09-17T04:54:16.249Z,3.97
2018-09-17T04:55:16.721Z,3.96
2018-09-17T04:56:17.191Z,3.88
2018-09-17T04:57:17.728Z,3.84
2018-09-17T04:58:18.134Z,3.86
2018-09-17T04:59:18.605Z,3.88
2018-09-17T05:00:19.077Z,3.86
2018-09-17T05:01:19.548Z,3.80
2018-09-17T05:02:20.018Z,3.63
2018-09-17T05:03:20.491Z,3.48
2018-09-17T05:04:20.966Z,3.41
2018-09-17T05:05:21.435Z,3.42
2018-09-17T05:06:21.908Z,3.41
2018-09-17T05:07:22.387Z,3.40
2018-09-17T05:08:22.852Z,3.35
2018-09-17T05:09:23.324Z,3.32
2018-09-17T05:10:23.797Z,3.32
2018-09-17T05:11:24.272Z,3.38
2018-09-17T05:12:24.744Z,3.42
2018-09-17T05:13:25.343Z,3.54
2018-09-17T05:14:25.691Z,3.68
2018-09-17T05:15:26.217Z,3.82
2018-09-17T05:16:26.640Z,3.88
2018-09-17T05:17:27.113Z,3.93
2018-09-17T05:18:27.587Z,3.97
2018-09-17T05:19:28.063Z,3.94
2018-09-17T05:20:28.567Z,3.86
2018-09-17T05:21:29.014Z,3.80
2018-09-17T05:22:29.487Z,3.72
2018-09-17T05:23:29.959Z,3.68
2018-09-17T05:24:30.436Z,3.56
2018-09-17T05:25:30.908Z,3.48
2018-09-17T05:26:31.383Z,3.47
2018-09-17T05:27:31.859Z,3.57
2018-09-17T05:28:32.330Z,3.76
2018-09-17T05:29:32.806Z,4.00
2018-09-17T05:30:33.279Z,4.04
2018-09-17T05:31:33.755Z,3.88
2018-09-17T05:32:34.227Z,3.86
2018-09-17T05:33:34.701Z,3.82
2018-09-17T05:34:35.177Z,3.82
2018-09-17T05:35:35.647Z,3.82
2018-09-17T05:36:36.123Z,3.84
2018-09-17T05:37:36.594Z,3.84
2018-09-17T05:38:37.067Z,3.92
2018-09-17T05:39:37.543Z,4.00
2018-09-17T05:40:38.014Z,4.10
2018-09-17T05:41:38.484Z,4.02
2018-09-17T05:42:38.959Z,3.64
2018-09-17T05:43:39.430Z,3.34
2018-09-17T05:44:39.902Z,3.18
2018-09-17T05:45:40.375Z,3.18
2018-09-17T05:46:40.845Z,3.22
2018-09-17T05:47:41.328Z,3.30
2018-09-17T05:48:41.790Z,3.47
2018-09-17T05:49:42.262Z,3.60
2018-09-17T05:50:42.735Z,3.78
2018-09-17T05:51:43.203Z,3.96
2018-09-17T05:52:43.673Z,4.10
2018-09-17T05:53:44.173Z,4.15
2018-09-17T05:54:44.618Z,4.21
2018-09-17T05:55:45.087Z,4.27
2018-09-17T05:56:45.560Z,4.32
2018-09-17T05:57:46.028Z,4.34
2018-09-17T05:58:46.503Z,4.37
2018-09-17T05:59:46.969Z,4.38
2018-09-17T06:00:47.439Z,4.38
2018-09-17T06:01:47.908Z,4.38
2018-09-17T06:02:48.384Z,4.40
2018-09-17T06:03:48.851Z,4.41
2018-09-17T06:04:49.322Z,4.42
2018-09-17T06:05:49.831Z,4.42
2018-09-17T06:06:50.313Z,4.38
2018-09-17T06:07:50.734Z,4.22
2018-09-17T06:08:51.202Z,4.02
2018-09-17T06:09:51.778Z,3.89
2018-09-17T06:10:52.147Z,3.90
2018-09-17T06:11:52.637Z,3.99
2018-09-17T06:12:53.086Z,4.10
2018-09-17T06:13:53.561Z,4.14
2018-09-17T06:14:54.031Z,4.22
2018-09-17T06:15:54.503Z,4.24
2018-09-17T06:16:54.975Z,4.25
2018-09-17T06:18:55.919Z,4.10
2018-09-17T06:19:56.392Z,4.05
2018-09-17T06:20:56.862Z,4.03
2018-09-17T06:21:57.336Z,4.02
2018-09-17T06:22:57.810Z,4.10
2018-09-17T06:23:58.283Z,4.18
2018-09-17T06:24:58.757Z,4.22
2018-09-17T06:25:59.233Z,4.22
2018-09-17T06:26:59.703Z,4.24
2018-09-17T06:28:00.204Z,4.27
2018-09-17T06:29:00.651Z,4.14
2018-09-17T06:30:01.182Z,4.02
2018-09-17T06:31:01.599Z,3.93
2018-09-17T06:32:02.081Z,3.98
2018-09-17T06:33:02.547Z,4.08
2018-09-17T06:34:03.022Z,4.18
2018-09-17T06:35:03.501Z,4.25
2018-09-17T06:36:03.973Z,4.33
2018-09-17T06:37:04.446Z,4.39
2018-09-17T06:38:04.920Z,4.42
2018-09-17T06:39:05.394Z,4.45
2018-09-17T06:40:05.869Z,4.48
2018-09-17T06:41:06.341Z,4.52
2018-09-17T06:42:06.817Z,4.54
2018-09-17T06:43:07.289Z,4.56
2018-09-17T06:44:07.765Z,4.58
2018-09-17T06:45:08.242Z,4.58
2018-09-17T06:46:08.711Z,4.56
2018-09-17T06:47:09.185Z,4.56
2018-09-17T06:48:09.662Z,4.52
2018-09-17T06:49:10.129Z,4.49
2018-09-17T06:50:10.603Z,4.36
2018-09-17T06:51:11.074Z,4.33
2018-09-17T06:52:11.548Z,4.36
2018-09-17T06:53:12.021Z,4.38
2018-09-17T06:54:12.495Z,4.38
2018-09-17T06:55:12.968Z,4.40
2018-09-17T06:56:13.437Z,4.42
2018-09-17T06:57:13.915Z,4.46
2018-09-17T06:58:14.380Z,4.52
2018-09-17T06:59:14.852Z,4.56
2018-09-17T07:00:15.325Z,4.56
2018-09-17T07:01:15.795Z,4.57
2018-09-17T07:02:16.267Z,4.56
2018-09-17T07:03:16.738Z,4.58
2018-09-17T07:04:17.210Z,4.67
2018-09-17T07:05:17.681Z,4.72
2018-09-17T07:06:18.192Z,4.75
2018-09-17T07:07:18.621Z,4.79
2018-09-17T07:08:19.092Z,4.80
2018-09-17T07:09:19.562Z,4.80
2018-09-17T07:10:20.035Z,4.82
2018-09-17T07:11:20.504Z,4.84
2018-09-17T07:12:20.977Z,4.83
2018-09-17T07:13:21.445Z,4.76
2018-09-17T07:14:21.916Z,4.71
2018-09-17T07:15:22.397Z,4.76
2018-09-17T07:16:22.855Z,4.84
2018-09-17T07:17:23.328Z,4.96
2018-09-17T07:18:23.797Z,5.05
2018-09-17T07:19:24.269Z,5.12
2018-09-17T07:20:24.743Z,5.20
2018-09-17T07:21:25.208Z,5.32
2018-09-17T07:22:25.680Z,5.23
2018-09-17T07:23:26.151Z,4.96
2018-09-17T07:24:26.679Z,4.92
2018-09-17T07:25:27.100Z,5.04
2018-09-17T07:26:27.571Z,5.13
2018-09-17T07:27:28.038Z,5.16
2018-09-17T07:28:28.514Z,5.10
2018-09-17T07:29:28.982Z,5.00
2018-09-17T07:30:29.457Z,5.04
2018-09-17T07:31:29.928Z,5.12
2018-09-17T07:32:30.402Z,5.21
2018-09-17T07:33:30.874Z,5.24
2018-09-17T07:34:31.349Z,5.20
2018-09-17T07:35:31.820Z,5.21
2018-09-17T07:36:32.385Z,5.16
2018-09-17T07:37:32.768Z,5.14
2018-09-17T07:38:33.243Z,5.01
2018-09-17T07:39:33.718Z,5.02
2018-09-17T07:40:34.206Z,5.06
2018-09-17T07:41:34.665Z,5.14
2018-09-17T07:42:35.150Z,5.20
2018-09-17T07:43:35.616Z,5.23
2018-09-17T07:44:36.089Z,5.22
2018-09-17T07:45:36.567Z,5.18
2018-09-17T07:46:37.038Z,5.12
2018-09-17T07:47:37.511Z,5.17
2018-09-17T07:48:37.988Z,5.23
2018-09-17T07:49:38.460Z,5.29
2018-09-17T07:50:38.936Z,5.32
2018-09-17T07:51:39.409Z,5.40
2018-09-17T07:52:39.889Z,5.45
2018-09-17T07:53:40.359Z,5.44
2018-09-17T07:54:40.832Z,5.38
2018-09-17T07:55:41.310Z,5.34
2018-09-17T07:56:41.781Z,5.39
2018-09-17T07:57:42.257Z,5.48
2018-09-17T07:58:42.729Z,5.58
2018-09-17T07:59:43.205Z,5.58
2018-09-17T08:00:43.678Z,5.65
2018-09-17T08:01:44.148Z,5.67
2018-09-17T08:02:44.621Z,5.66
2018-09-17T08:03:45.095Z,5.62
2018-09-17T08:04:45.570Z,5.64
2018-09-17T08:05:46.074Z,5.70
2018-09-17T08:06:46.516Z,5.82
2018-09-17T08:07:46.988Z,5.94
2018-09-17T08:08:47.459Z,5.88
2018-09-17T08:09:47.931Z,5.93
2018-09-17T08:10:48.403Z,5.99
2018-09-17T08:11:48.876Z,5.95
2018-09-17T08:12:49.348Z,5.84
2018-09-17T08:13:49.820Z,5.58
2018-09-17T08:14:50.292Z,5.37
2018-09-17T08:15:50.764Z,5.26
2018-09-17T08:16:51.271Z,5.32
2018-09-17T08:17:51.705Z,5.34
2018-09-17T08:18:52.179Z,5.36
2018-09-17T08:19:52.651Z,5.47
2018-09-17T08:20:53.121Z,5.65
2018-09-17T08:21:53.593Z,5.78
2018-09-17T08:22:54.063Z,5.73
2018-09-17T08:23:54.535Z,5.74
2018-09-17T08:24:55.006Z,5.86
2018-09-17T08:25:55.476Z,5.80
2018-09-17T08:26:55.953Z,5.88
2018-09-17T08:27:56.421Z,5.87
2018-09-17T08:28:56.897Z,5.94
2018-09-17T08:29:57.365Z,5.90
2018-09-17T08:30:57.835Z,5.93
2018-09-17T08:31:58.310Z,5.66
2018-09-17T08:32:58.781Z,5.57
2018-09-17T08:33:59.250Z,5.64
2018-09-17T08:34:59.722Z,5.88
2018-09-17T08:36:00.195Z,6.00
2018-09-17T08:37:00.668Z,6.07
2018-09-17T08:38:01.143Z,5.96
2018-09-17T08:39:01.612Z,5.75
2018-09-17T08:40:02.088Z,5.72
2018-09-17T08:41:02.558Z,5.82
2018-09-17T08:42:03.033Z,5.87
2018-09-17T08:43:03.505Z,5.92
2018-09-17T08:44:03.977Z,6.06
2018-09-17T08:45:04.453Z,6.02
2018-09-17T08:46:04.926Z,6.07
2018-09-17T08:47:05.401Z,6.12
2018-09-17T08:48:05.872Z,6.20
2018-09-17T08:49:06.350Z,6.26
2018-09-17T08:50:06.821Z,6.25
2018-09-17T08:51:07.297Z,6.25
2018-09-17T08:52:07.819Z,6.27
2018-09-17T08:53:08.308Z,6.06
2018-09-17T08:54:08.724Z,5.92
2018-09-17T08:55:09.194Z,5.76
2018-09-17T08:56:09.670Z,5.92
2018-09-17T08:57:10.146Z,6.04
2018-09-17T08:58:10.624Z,6.12
2018-09-17T08:59:11.097Z,6.10
2018-09-17T09:00:11.571Z,6.01
2018-09-17T09:01:12.047Z,5.92
2018-09-17T09:02:12.521Z,6.06
2018-09-17T09:03:12.995Z,6.16
2018-09-17T09:04:13.469Z,6.28
2018-09-17T09:05:13.943Z,6.32
2018-09-17T09:06:14.424Z,6.31
2018-09-17T09:07:14.893Z,6.34
2018-09-17T09:08:15.372Z,6.40
2018-09-17T09:09:15.842Z,6.52
2018-09-17T09:10:16.316Z,6.51
2018-09-17T09:11:16.795Z,6.45
2018-09-17T09:12:17.264Z,6.44
2018-09-17T09:13:17.737Z,6.42
2018-09-17T09:14:18.209Z,6.44
2018-09-17T09:15:18.687Z,6.46
2018-09-17T09:16:19.158Z,6.48
2018-09-17T09:17:19.632Z,6.52
2018-09-17T09:18:20.104Z,6.51
2018-09-17T09:19:20.578Z,6.50
2018-09-17T09:20:21.052Z,6.24
2018-09-17T09:21:21.525Z,6.40
2018-09-17T09:22:22.002Z,6.56
2018-09-17T09:23:22.469Z,6.65
2018-09-17T09:24:22.944Z,6.74
2018-09-17T09:25:23.417Z,6.74
2018-09-17T09:26:23.889Z,6.80
2018-09-17T09:27:24.361Z,6.76
2018-09-17T09:28:24.833Z,6.74
2018-09-17T09:29:25.304Z,6.78
2018-09-17T09:30:25.775Z,6.87
2018-09-17T09:31:26.248Z,6.92
2018-09-17T09:32:26.720Z,6.92
2018-09-17T09:33:27.193Z,6.90
2018-09-17T09:34:27.664Z,6.75
2018-09-17T09:35:28.137Z,6.70
2018-09-17T09:36:28.611Z,6.60
2018-09-17T09:37:29.079Z,6.70
2018-09-17T09:38:29.552Z,6.84
2018-09-17T09:39:30.023Z,6.98
2018-09-17T09:40:30.494Z,7.16
2018-09-17T09:41:30.965Z,7.26
2018-09-17T09:42:31.436Z,7.31
2018-09-17T09:43:31.907Z,7.38
2018-09-17T09:44:32.380Z,7.42
2018-09-17T09:45:32.850Z,7.40
2018-09-17T09:46:33.320Z,7.43
2018-09-17T09:47:33.790Z,7.46
2018-09-17T09:48:34.262Z,7.44
2018-09-17T09:49:34.733Z,7.45
2018-09-17T09:50:35.205Z,7.46
2018-09-17T09:51:35.676Z,7.48
2018-09-17T09:52:36.181Z,7.55
2018-09-17T09:53:36.621Z,7.51
2018-09-17T09:54:37.090Z,7.55
2018-09-17T09:55:37.563Z,7.60
2018-09-17T09:56:38.034Z,7.63
2018-09-17T09:57:38.508Z,7.69
2018-09-17T09:58:38.979Z,7.74
2018-09-17T09:59:39.469Z,7.79
2018-09-17T10:00:39.924Z,7.82
2018-09-17T10:01:40.400Z,7.92
2018-09-17T10:02:40.874Z,7.98
2018-09-17T10:03:41.344Z,7.96
2018-09-17T10:04:41.817Z,7.88
2018-09-17T10:05:42.292Z,7.92
2018-09-17T10:06:42.764Z,8.03
2018-09-17T10:07:43.238Z,8.14
2018-09-17T10:08:43.715Z,8.22
2018-09-17T10:09:44.188Z,8.28
2018-09-17T10:10:44.662Z,8.31
2018-09-17T10:11:45.227Z,8.34
2018-09-17T10:12:45.618Z,8.18
2018-09-17T10:13:46.088Z,8.08
2018-09-17T10:14:46.564Z,8.20
2018-09-17T10:15:47.039Z,8.33
2018-09-17T10:16:47.514Z,8.44
2018-09-17T10:17:47.990Z,8.36
2018-09-17T10:18:48.464Z,8.12
2018-09-17T10:19:48.939Z,8.06
2018-09-17T10:20:49.417Z,8.16
2018-09-17T10:21:49.890Z,8.28
2018-09-17T10:22:50.364Z,8.36
2018-09-17T10:23:50.843Z,8.47
2018-09-17T10:24:51.318Z,8.54
2018-09-17T10:25:51.793Z,8.65
2018-09-17T10:26:52.267Z,8.54
2018-09-17T10:27:52.742Z,8.38
2018-09-17T10:28:53.218Z,8.32
2018-09-17T10:29:53.707Z,8.36
2018-09-17T10:30:54.166Z,8.52
2018-09-17T10:31:54.642Z,8.62
2018-09-17T10:32:55.119Z,8.76
2018-09-17T10:33:55.591Z,8.78
2018-09-17T10:34:56.064Z,8.92
2018-09-17T10:35:56.540Z,9.07
2018-09-17T10:36:57.017Z,9.19
2018-09-17T10:37:57.490Z,9.16
2018-09-17T10:38:57.963Z,9.14
2018-09-17T10:39:58.441Z,9.34
2018-09-17T10:40:58.917Z,9.45
2018-09-17T10:41:59.388Z,9.57
2018-09-17T10:42:59.859Z,9.66
2018-09-17T10:44:00.336Z,9.67
2018-09-17T10:45:00.809Z,9.48
2018-09-17T10:46:01.335Z,9.40
2018-09-17T10:47:01.807Z,9.50
2018-09-17T10:48:02.229Z,9.67
2018-09-17T10:49:02.702Z,9.54
2018-09-17T10:50:03.176Z,9.57
2018-09-17T10:51:03.652Z,9.54
2018-09-17T10:52:04.122Z,9.55
2018-09-17T10:53:04.597Z,9.76
2018-09-17T10:54:05.071Z,9.80
2018-09-17T10:55:05.541Z,9.78
2018-09-17T10:56:06.016Z,9.77
2018-09-17T10:57:06.489Z,9.80
2018-09-17T10:58:06.966Z,9.98
2018-09-17T10:59:07.434Z,9.98
2018-09-17T11:00:07.909Z,9.94
2018-09-17T11:01:08.385Z,9.89
2018-09-17T11:02:08.854Z,9.83
2018-09-17T11:03:09.327Z,9.67
2018-09-17T11:04:09.798Z,9.69
2018-09-17T11:05:10.271Z,9.80
2018-09-17T11:06:10.746Z,9.80
2018-09-17T11:07:11.217Z,9.86
2018-09-17T11:08:11.708Z,9.76
2018-09-17T11:09:12.166Z,9.61
2018-09-17T11:10:12.634Z,9.44
2018-09-17T11:11:13.106Z,9.32
2018-09-17T11:12:13.578Z,9.32
2018-09-17T11:13:14.051Z,9.40
2018-09-17T11:14:14.523Z,9.36
2018-09-17T11:15:14.995Z,9.36
2018-09-17T11:16:15.467Z,9.31
2018-09-17T11:17:15.964Z,9.44
2018-09-17T11:18:16.413Z,9.54
2018-09-17T11:19:16.884Z,9.71
2018-09-17T11:20:17.357Z,9.82
2018-09-17T11:21:17.829Z,9.88
2018-09-17T11:22:18.306Z,9.64
2018-09-17T11:23:18.778Z,9.58
2018-09-17T11:24:19.244Z,9.36
2018-09-17T11:25:19.716Z,9.38
2018-09-17T11:26:20.189Z,9.44
2018-09-17T11:27:20.661Z,9.40
2018-09-17T11:28:21.134Z,9.36
2018-09-17T11:29:21.607Z,9.26
2018-09-17T11:30:22.078Z,9.35
2018-09-17T11:31:22.552Z,9.43
2018-09-17T11:32:23.022Z,9.53
2018-09-17T11:33:23.494Z,9.50
2018-09-17T11:34:23.967Z,9.28
2018-09-17T11:35:24.436Z,9.18
2018-09-17T11:36:24.908Z,9.30
2018-09-17T11:37:25.380Z,9.32
2018-09-17T11:38:25.853Z,9.34
2018-09-17T11:39:26.328Z,9.40
2018-09-17T11:40:26.798Z,9.42
2018-09-17T11:41:27.925Z,9.50
2018-09-17T11:42:27.741Z,9.63
2018-09-17T11:43:28.211Z,9.74
2018-09-17T11:44:28.683Z,9.81
2018-09-17T11:45:29.157Z,9.88
2018-09-17T11:46:29.627Z,9.88
2018-09-17T11:47:30.098Z,9.89
2018-09-17T11:48:30.569Z,9.93
2018-09-17T11:49:31.041Z,9.82
2018-09-17T11:50:31.514Z,9.56
2018-09-17T11:51:31.986Z,9.32
2018-09-17T11:52:32.459Z,9.21
2018-09-17T11:53:32.977Z,9.20
2018-09-17T11:54:33.401Z,9.22
2018-09-17T11:55:33.870Z,9.18
2018-09-17T11:56:34.344Z,9.18
2018-09-17T11:57:34.816Z,9.24
2018-09-17T11:58:35.289Z,9.31
2018-09-17T11:59:35.758Z,9.36
2018-09-17T12:00:36.229Z,9.41
2018-09-17T12:01:36.701Z,9.26
2018-09-17T12:02:37.174Z,9.12
2018-09-17T12:03:37.644Z,9.01
2018-09-17T12:04:38.119Z,9.13
2018-09-17T12:06:39.063Z,9.16
2018-09-17T12:07:39.537Z,9.17
2018-09-17T12:08:40.005Z,9.00
2018-09-17T12:09:40.476Z,9.11
2018-09-17T12:10:40.950Z,9.34
2018-09-17T12:11:41.419Z,9.38
2018-09-17T12:12:41.890Z,9.34
2018-09-17T12:13:42.393Z,8.96
2018-09-17T12:14:42.863Z,8.72
2018-09-17T12:15:43.310Z,8.84
2018-09-17T12:16:43.777Z,9.11
2018-09-17T12:17:44.256Z,9.36
2018-09-17T12:18:44.723Z,9.50
2018-09-17T12:19:45.195Z,9.74
2018-09-17T12:20:45.664Z,9.82
2018-09-17T12:21:46.136Z,9.74
2018-09-17T12:22:46.608Z,9.88
2018-09-17T12:23:47.088Z,10.03
2018-09-17T12:24:47.552Z,10.24
2018-09-17T12:25:48.023Z,9.98
2018-09-17T12:26:48.493Z,9.78
2018-09-17T12:27:48.965Z,9.70
2018-09-17T12:28:49.441Z,9.42
2018-09-17T12:29:49.911Z,9.16
2018-09-17T12:30:50.383Z,9.10
2018-09-17T12:31:50.853Z,8.90
2018-09-17T12:32:51.325Z,8.74
2018-09-17T12:33:51.875Z,8.73
2018-09-17T12:34:52.271Z,8.89
2018-09-17T12:35:52.741Z,9.06
2018-09-17T12:36:53.212Z,9.26
2018-09-17T12:37:53.683Z,9.28
2018-09-17T12:38:54.157Z,9.09
2018-09-17T12:39:54.630Z,9.18
2018-09-17T12:40:55.099Z,9.28
2018-09-17T12:41:55.573Z,9.12
2018-09-17T12:42:56.045Z,8.98
2018-09-17T12:43:56.517Z,8.80
2018-09-17T12:44:56.987Z,8.68
2018-09-17T12:45:57.483Z,8.71
2018-09-17T12:46:57.932Z,8.84
2018-09-17T12:47:58.403Z,9.06
2018-09-17T12:48:58.879Z,9.14
2018-09-17T12:49:59.348Z,9.17
2018-09-17T12:50:59.824Z,9.08
2018-09-17T12:52:00.296Z,9.07
2018-09-17T12:53:00.766Z,9.17
2018-09-17T12:54:01.237Z,9.22
2018-09-17T12:55:01.711Z,9.14
2018-09-17T12:56:02.181Z,9.00
2018-09-17T12:57:02.654Z,8.97
2018-09-17T12:58:03.129Z,8.93
2018-09-17T12:59:03.598Z,8.99
2018-09-17T13:00:04.070Z,8.96
2018-09-17T13:01:04.540Z,9.04
2018-09-17T13:02:05.015Z,9.30
2018-09-17T13:03:05.488Z,9.35
2018-09-17T13:04:05.958Z,9.42
2018-09-17T13:05:06.431Z,9.58
2018-09-17T13:06:06.903Z,9.71
2018-09-17T13:07:07.376Z,9.76
2018-09-17T13:08:07.847Z,9.70
2018-09-17T13:09:08.320Z,9.72
2018-09-17T13:10:08.793Z,9.52
2018-09-17T13:11:09.267Z,9.49
2018-09-17T13:12:10.197Z,9.68
2018-09-17T13:13:10.213Z,9.70
2018-09-17T13:14:10.684Z,9.66
2018-09-17T13:15:11.156Z,9.64
2018-09-17T13:16:11.628Z,9.62
2018-09-17T13:17:12.102Z,9.52
2018-09-17T13:18:12.573Z,9.78
2018-09-17T13:19:13.046Z,10.19
2018-09-17T13:20:13.518Z,10.09
2018-09-17T13:21:13.992Z,9.98
2018-09-17T13:22:14.463Z,9.86
2018-09-17T13:23:15.064Z,9.90
2018-09-17T13:24:15.409Z,9.89
2018-09-17T13:25:15.882Z,9.78
2018-09-17T13:26:16.356Z,9.50
2018-09-17T13:27:16.828Z,9.40